Terminal Aerodrome Forecast
Issued by NWS

Home | Current Version | Previous Version | Text Only | Print | Product List | Glossary On
Versions: 1 2 3 4 5 6 7 8 9 10 11 12
000
FTUS42 TJSJ 300534
TAFJPS
TAF
TJPS 300534Z 3006/0106 06004KT P6SM FEW040
     FM301430 14012KT P6SM VCSH FEW030
     FM302330 07005KT P6SM FEW040
      AMD NOT SKED 3012/0103=

USA.gov is the U.S. government's official web portal to all federal, state and local government web resources and services.